Portada
METAR-TAF:

METAR-TAF

Aeropuertos :

Tongatapu, Tonga

Aeropuerto Internacional Fua'amotu

latitud: 21-14S, longitud: 175-09W, altitud: 38 m

Observación

El informe se hizo hace 1 hora y 2 minutos, a las 05:00 UTC
Viento 12 kt del oeste
Temperatura 22°C
Humedad 69%
Presión 1010 hPa
Visibilidad 10 km o más
Nubes dispersas a una altura de 1700 ft

METAR: NFTF 170500Z 26012KT 9999 SCT017 22/16 Q1010

Hora: 19:02 (06:02 UTC)

Pronóstico

El informe se hizo hace 42 minutos, a las 05:20 UTC
Pronóstico válido del 17 a las 06 UTC al 18 a las 06 UTC
Viento 15 kt del oeste
Visibilidad 10 km o más
Escasas nubes a una altura de 700 ft
Nubes dispersas a una altura de 1600 ft
Cielo nuboso a una altura de 10000 ft
Evolucionando progresivamente
del 17 a las 21 UTC al 17 a las 23 UTC
Viento 10 kt del sur

TAF: NFTF 170520Z 1706/1806 27015KT 9999 FEW007 SCT016 BKN100 BECMG 1721/1723 18010KT

Observaciones y pronósticos meteorológicos de más de 4000 aeropuertos (mensajes METAR y TAF).

Los puntos amarillos y rojos representan las estaciones disponibles.

Ponga el ratón en el punto deseado para ver el nombre de la estación.

Haga clic para ver las observaciones y los pronósticos meteorológicos.

Para cambiar el mapa : haga clic en los botones verdes con una cruz de color negro para hacer un zoom, en el botón verde con un guión para alejar o en las flechas verdes para mapas adyacentes.


METAR-TAF: